createdAt,value
2022-11-19T00:01:10.115Z,10.40
2022-11-19T00:03:38.235Z,7.73
2022-11-19T00:06:07.844Z,9.90
2022-11-19T00:08:35.136Z,9.63
2022-11-19T00:11:09.510Z,8.73
2022-11-19T00:13:37.523Z,10.00
2022-11-19T00:16:09.339Z,10.27
2022-11-19T00:18:36.004Z,11.07
2022-11-19T00:21:08.072Z,11.03
2022-11-19T00:23:34.959Z,9.33
2022-11-19T00:26:19.811Z,10.57
2022-11-19T00:28:46.608Z,12.53
2022-11-19T00:31:14.711Z,12.50
2022-11-19T00:33:42.433Z,12.43
2022-11-19T00:36:12.082Z,15.23
2022-11-19T00:38:38.736Z,14.77
2022-11-19T00:41:05.933Z,13.83
2022-11-19T00:43:48.369Z,16.50
2022-11-19T00:46:21.519Z,15.03
2022-11-19T00:48:49.625Z,14.87
2022-11-19T00:51:18.152Z,14.23
2022-11-19T00:53:45.001Z,15.00
2022-11-19T00:56:13.594Z,16.53
2022-11-19T00:58:40.652Z,14.30
2022-11-19T01:01:07.919Z,16.73
2022-11-19T01:03:35.132Z,16.30
2022-11-19T01:06:02.171Z,16.60
2022-11-19T01:08:28.790Z,18.80
2022-11-19T01:10:55.318Z,15.10
2022-11-19T01:13:37.618Z,20.57
2022-11-19T01:16:04.285Z,19.53
2022-11-19T01:18:31.327Z,19.50
2022-11-19T01:20:57.841Z,21.10
2022-11-19T01:23:24.385Z,24.17
2022-11-19T01:25:50.916Z,20.80
2022-11-19T01:28:17.876Z,19.97
2022-11-19T01:30:44.732Z,22.30
2022-11-19T01:33:11.492Z,21.63
2022-11-19T01:35:38.609Z,22.60
2022-11-19T01:38:05.674Z,22.37
2022-11-19T01:40:32.700Z,20.10
2022-11-19T01:42:59.704Z,21.23
2022-11-19T01:45:36.045Z,20.27
2022-11-19T01:48:15.250Z,23.53
2022-11-19T01:50:47.168Z,22.90
2022-11-19T01:53:13.879Z,20.80
2022-11-19T01:55:43.124Z,21.60
2022-11-19T01:58:10.750Z,22.43
2022-11-19T02:00:37.222Z,24.40
2022-11-19T02:03:04.065Z,21.50
2022-11-19T02:05:30.671Z,19.73
2022-11-19T02:07:58.586Z,22.53
2022-11-19T02:10:39.209Z,23.07
2022-11-19T02:13:30.415Z,25.47
2022-11-19T02:16:21.533Z,26.37
2022-11-19T02:19:29.625Z,26.93
2022-11-19T02:21:56.044Z,22.83
2022-11-19T02:24:41.697Z,24.57
2022-11-19T02:27:30.919Z,23.93
2022-11-19T02:30:05.958Z,23.30
2022-11-19T02:32:53.784Z,24.47
2022-11-19T02:35:59.921Z,25.67
2022-11-19T02:38:48.256Z,21.20
2022-11-19T02:41:35.185Z,24.40
2022-11-19T02:44:47.501Z,26.30
2022-11-19T02:47:22.569Z,24.23
2022-11-19T02:49:51.364Z,23.70
2022-11-19T02:52:18.554Z,23.87
2022-11-19T02:54:45.066Z,24.83
2022-11-19T02:57:12.570Z,23.13
2022-11-19T03:00:07.426Z,26.30
2022-11-19T03:02:57.110Z,26.37
2022-11-19T03:05:26.546Z,26.10
2022-11-19T03:07:53.103Z,25.80
2022-11-19T03:10:22.884Z,25.80
2022-11-19T03:12:54.025Z,26.57
2022-11-19T03:15:48.350Z,24.77
2022-11-19T03:18:33.498Z,25.93
2022-11-19T03:21:08.631Z,27.30
2022-11-19T03:23:47.606Z,27.90
2022-11-19T03:26:17.044Z,28.33
2022-11-19T03:28:44.635Z,27.87
2022-11-19T03:31:11.563Z,27.00
2022-11-19T03:33:50.781Z,24.30
2022-11-19T03:36:27.055Z,26.57
2022-11-19T03:38:58.055Z,24.80
2022-11-19T03:41:25.886Z,25.23
2022-11-19T03:43:56.107Z,27.37
2022-11-19T03:46:23.140Z,25.90
2022-11-19T03:48:52.762Z,28.53
2022-11-19T03:51:41.675Z,28.10
2022-11-19T03:54:08.673Z,26.47
2022-11-19T03:56:37.671Z,25.30
2022-11-19T03:59:07.727Z,28.73
2022-11-19T04:01:36.645Z,27.03
2022-11-19T04:04:22.344Z,27.50
2022-11-19T04:06:48.938Z,28.00
2022-11-19T04:09:15.570Z,25.00
2022-11-19T04:11:43.383Z,30.53
2022-11-19T04:14:09.931Z,29.50
2022-11-19T04:16:36.769Z,29.77
2022-11-19T04:19:03.397Z,31.13
2022-11-19T04:21:30.209Z,29.40
2022-11-19T04:23:56.701Z,29.40
2022-11-19T04:26:23.190Z,28.23
2022-11-19T04:28:49.724Z,30.50
2022-11-19T04:31:18.041Z,33.17
2022-11-19T04:33:44.800Z,34.30
2022-11-19T04:36:11.236Z,32.67
2022-11-19T04:38:37.901Z,30.70
2022-11-19T04:41:04.485Z,34.93
2022-11-19T04:43:30.991Z,32.10
2022-11-19T04:45:57.694Z,33.07
2022-11-19T04:48:24.220Z,34.23
2022-11-19T04:50:50.655Z,33.90
2022-11-19T04:53:17.172Z,31.53
2022-11-19T04:55:43.684Z,30.53
2022-11-19T04:58:10.360Z,35.70
2022-11-19T05:00:37.300Z,36.90
2022-11-19T05:03:04.159Z,34.83
2022-11-19T05:05:30.791Z,34.60
2022-11-19T05:07:57.234Z,34.93
2022-11-19T05:10:23.868Z,34.80
2022-11-19T05:12:50.365Z,37.30
2022-11-19T05:15:16.891Z,31.93
2022-11-19T05:17:44.797Z,38.37
2022-11-19T05:20:11.571Z,36.00
2022-11-19T05:22:38.022Z,36.73
2022-11-19T05:25:04.842Z,34.07
2022-11-19T05:27:31.402Z,33.97
2022-11-19T05:29:57.850Z,31.43
2022-11-19T05:32:24.328Z,30.80
2022-11-19T05:34:50.895Z,33.90
2022-11-19T05:37:17.596Z,31.10
2022-11-19T05:39:44.132Z,30.00
2022-11-19T05:42:10.586Z,26.40
2022-11-19T05:44:37.123Z,35.20
2022-11-19T05:47:03.634Z,29.07
2022-11-19T05:49:30.136Z,28.97
2022-11-19T05:51:56.582Z,28.87
2022-11-19T05:54:23.250Z,29.70
2022-11-19T05:56:49.838Z,27.93
2022-11-19T05:59:16.586Z,28.30
2022-11-19T06:01:43.127Z,26.60
2022-11-19T06:04:10.989Z,22.90
2022-11-19T06:06:37.966Z,27.57
2022-11-19T06:09:04.721Z,28.13
2022-11-19T06:11:50.420Z,29.67
2022-11-19T06:14:19.412Z,30.80
2022-11-19T06:16:45.874Z,30.23
2022-11-19T06:19:12.358Z,25.17
2022-11-19T06:21:38.907Z,30.17
2022-11-19T06:24:05.950Z,28.53
2022-11-19T06:26:32.468Z,26.50
2022-11-19T06:28:58.913Z,23.33
2022-11-19T06:31:25.443Z,29.13
2022-11-19T06:33:53.595Z,26.33
2022-11-19T06:36:20.583Z,28.40
2022-11-19T06:38:47.134Z,24.03
2022-11-19T06:41:13.764Z,24.60
2022-11-19T06:43:40.307Z,26.90
2022-11-19T06:46:06.773Z,23.50
2022-11-19T06:48:33.257Z,25.33
2022-11-19T06:51:01.570Z,24.07
2022-11-19T06:53:28.543Z,22.87
2022-11-19T06:55:58.697Z,22.03
2022-11-19T06:58:25.428Z,24.63
2022-11-19T07:00:52.113Z,26.37
2022-11-19T07:03:19.125Z,25.03
2022-11-19T07:05:47.915Z,21.87
2022-11-19T07:08:14.842Z,22.00
2022-11-19T07:10:41.336Z,22.40
2022-11-19T07:13:07.918Z,19.30
2022-11-19T07:15:34.981Z,25.00
2022-11-19T07:18:02.062Z,22.23
2022-11-19T07:20:28.890Z,22.43
2022-11-19T07:22:59.141Z,20.90
2022-11-19T07:25:26.215Z,20.27
2022-11-19T07:27:52.783Z,20.10
2022-11-19T07:30:19.408Z,17.53
2022-11-19T07:32:45.977Z,19.60
2022-11-19T07:35:12.734Z,17.13
2022-11-19T07:37:39.245Z,16.70
2022-11-19T07:40:06.495Z,17.50
2022-11-19T07:42:51.429Z,16.80
2022-11-19T07:45:19.457Z,15.50
2022-11-19T07:47:46.289Z,15.20
2022-11-19T07:50:13.077Z,15.60
2022-11-19T07:52:39.745Z,13.80
2022-11-19T07:55:07.149Z,16.73
2022-11-19T07:57:33.735Z,17.87
2022-11-19T08:00:00.281Z,13.90
2022-11-19T08:02:26.875Z,15.93
2022-11-19T08:04:53.402Z,14.57
2022-11-19T08:07:20.014Z,14.60
2022-11-19T08:09:46.952Z,14.53
2022-11-19T08:12:13.675Z,12.73
2022-11-19T08:14:40.181Z,16.47
2022-11-19T08:17:25.360Z,13.10
2022-11-19T08:19:51.880Z,13.67
2022-11-19T08:22:18.533Z,14.27
2022-11-19T08:24:45.047Z,14.67
2022-11-19T08:27:11.867Z,15.33
2022-11-19T08:29:38.611Z,13.70
2022-11-19T08:32:05.081Z,13.13
2022-11-19T08:34:32.193Z,13.83
2022-11-19T08:36:59.060Z,13.87
2022-11-19T08:39:25.541Z,17.23
2022-11-19T08:42:10.654Z,14.00
2022-11-19T08:44:37.176Z,12.20
2022-11-19T08:47:03.656Z,11.67
2022-11-19T08:49:30.189Z,12.87
2022-11-19T08:51:57.941Z,13.73
2022-11-19T08:54:24.423Z,16.10
2022-11-19T08:56:51.074Z,14.40
2022-11-19T08:59:17.836Z,11.27
2022-11-19T09:01:44.489Z,12.47
2022-11-19T09:04:10.951Z,14.70
2022-11-19T09:06:37.464Z,14.63
2022-11-19T09:09:04.818Z,12.13
2022-11-19T09:11:31.376Z,11.27
2022-11-19T09:13:58.633Z,14.30
2022-11-19T09:16:25.177Z,12.17
2022-11-19T09:18:51.640Z,12.33
2022-11-19T09:21:18.177Z,13.00
2022-11-19T09:23:44.659Z,12.30
2022-11-19T09:26:14.167Z,10.07
2022-11-19T09:28:41.083Z,11.53
2022-11-19T09:31:15.867Z,11.00
2022-11-19T09:33:45.643Z,10.50
2022-11-19T09:36:13.404Z,13.30
2022-11-19T09:38:40.870Z,13.60
2022-11-19T09:41:25.687Z,12.53
2022-11-19T09:44:17.533Z,13.13
2022-11-19T09:47:02.441Z,13.20
2022-11-19T09:49:37.914Z,10.13
2022-11-19T09:52:07.771Z,9.00
2022-11-19T09:54:34.734Z,10.37
2022-11-19T09:57:04.699Z,9.33
2022-11-19T09:59:38.438Z,10.57
2022-11-19T10:02:21.878Z,10.00
2022-11-19T10:04:50.729Z,9.73
2022-11-19T10:07:35.889Z,9.30
2022-11-19T10:10:23.769Z,10.17
2022-11-19T10:13:12.031Z,10.07
2022-11-19T10:15:44.552Z,10.83
2022-11-19T10:18:20.665Z,9.57
2022-11-19T10:21:30.528Z,10.23
2022-11-19T10:24:19.166Z,11.27
2022-11-19T10:27:09.842Z,10.40
2022-11-19T10:29:39.059Z,10.47
2022-11-19T10:32:41.108Z,10.03
2022-11-19T10:35:18.716Z,12.90
2022-11-19T10:37:56.092Z,10.13
2022-11-19T10:40:24.330Z,9.83
2022-11-19T10:42:54.984Z,12.70
2022-11-19T10:45:24.521Z,9.83
2022-11-19T10:48:09.307Z,10.57
2022-11-19T10:50:36.609Z,10.00
2022-11-19T10:53:25.276Z,10.87
2022-11-19T10:55:55.160Z,11.30
2022-11-19T10:58:30.114Z,9.63
2022-11-19T11:00:58.264Z,10.33
2022-11-19T11:03:29.091Z,10.47
2022-11-19T11:05:55.685Z,10.80
2022-11-19T11:08:22.255Z,10.53
2022-11-19T11:10:48.796Z,10.10
2022-11-19T11:13:33.930Z,10.00
2022-11-19T11:16:06.958Z,10.30
2022-11-19T11:18:33.738Z,11.00
2022-11-19T11:21:00.504Z,10.73
2022-11-19T11:23:30.999Z,10.10
2022-11-19T11:26:05.855Z,10.63
2022-11-19T11:28:33.046Z,11.23
2022-11-19T11:31:05.201Z,10.73
2022-11-19T11:33:34.893Z,10.57
2022-11-19T11:36:12.980Z,10.50
2022-11-19T11:38:47.877Z,10.87
2022-11-19T11:42:03.410Z,10.20
2022-11-19T11:44:21.998Z,10.17
2022-11-19T11:46:51.078Z,11.53
2022-11-19T11:49:31.233Z,12.00
2022-11-19T11:52:13.058Z,11.80
2022-11-19T11:55:02.399Z,10.00
2022-11-19T11:57:29.944Z,9.30
2022-11-19T11:59:57.229Z,10.27
2022-11-19T12:02:26.843Z,11.10
2022-11-19T12:04:54.972Z,10.67
2022-11-19T12:07:40.196Z,9.53
2022-11-19T12:10:09.748Z,10.47
2022-11-19T12:12:39.077Z,9.10
2022-11-19T12:15:22.362Z,10.00
2022-11-19T12:17:53.911Z,11.23
2022-11-19T12:20:22.540Z,10.33
2022-11-19T12:22:56.675Z,10.47
2022-11-19T12:25:39.143Z,10.90
2022-11-19T12:28:34.337Z,11.80
2022-11-19T12:31:13.047Z,11.53
2022-11-19T12:33:56.331Z,10.13
2022-11-19T12:36:57.470Z,10.67
2022-11-19T12:39:45.693Z,11.83
2022-11-19T12:42:33.921Z,9.90
2022-11-19T12:45:17.211Z,9.90
2022-11-19T12:48:02.654Z,11.90
2022-11-19T12:50:30.452Z,9.87
2022-11-19T12:53:27.790Z,12.03
2022-11-19T12:56:06.547Z,17.10
2022-11-19T12:59:01.931Z,15.30
2022-11-19T13:01:32.828Z,10.87
2022-11-19T13:04:17.234Z,10.40
2022-11-19T13:06:49.701Z,11.30
2022-11-19T13:09:39.569Z,11.73
2022-11-19T13:12:08.854Z,11.00
2022-11-19T13:14:41.034Z,10.60
2022-11-19T13:17:16.687Z,12.67
2022-11-19T13:19:46.723Z,11.50
2022-11-19T13:22:18.958Z,11.50
2022-11-19T13:24:56.451Z,10.97
2022-11-19T13:27:26.291Z,10.67
2022-11-19T13:30:03.098Z,9.53
2022-11-19T13:32:54.552Z,10.70
2022-11-19T13:35:21.205Z,9.80
2022-11-19T13:38:22.358Z,13.03
2022-11-19T13:41:04.888Z,11.60
2022-11-19T13:43:49.996Z,9.83
2022-11-19T13:46:21.707Z,10.17
2022-11-19T13:49:02.962Z,9.07
2022-11-19T13:51:53.670Z,11.00
2022-11-19T13:54:34.531Z,15.43
2022-11-19T13:57:01.607Z,9.83
2022-11-19T13:59:38.008Z,10.27
2022-11-19T14:03:01.269Z,10.20
2022-11-19T14:05:27.741Z,9.60
2022-11-19T14:08:05.803Z,10.73
2022-11-19T14:10:37.700Z,13.10
2022-11-19T14:13:33.319Z,12.33
2022-11-19T14:16:27.830Z,9.50
2022-11-19T14:19:18.353Z,11.00
2022-11-19T14:22:05.808Z,11.80
2022-11-19T14:24:50.615Z,10.90
2022-11-19T14:27:21.208Z,10.53
2022-11-19T14:29:47.640Z,12.90
2022-11-19T14:32:14.093Z,13.50
2022-11-19T14:35:02.484Z,10.87
2022-11-19T14:37:41.618Z,10.07
2022-11-19T14:40:15.640Z,11.13
2022-11-19T14:43:19.224Z,9.80
2022-11-19T14:46:01.711Z,10.80
2022-11-19T14:48:29.901Z,10.00
2022-11-19T14:51:10.885Z,13.50
2022-11-19T14:53:46.395Z,9.67
2022-11-19T14:56:15.627Z,10.90
2022-11-19T14:58:58.667Z,11.10
2022-11-19T15:01:25.287Z,9.77
2022-11-19T15:03:55.882Z,9.03
2022-11-19T15:06:22.608Z,11.50
2022-11-19T15:08:54.512Z,12.20
2022-11-19T15:11:21.359Z,10.03
2022-11-19T15:13:49.397Z,11.63
2022-11-19T15:16:17.889Z,10.27
2022-11-19T15:18:44.376Z,11.90
2022-11-19T15:21:16.982Z,10.10
2022-11-19T15:24:18.082Z,10.83
2022-11-19T15:26:59.993Z,11.07
2022-11-19T15:29:32.191Z,11.53
2022-11-19T15:32:20.543Z,19.00
2022-11-19T15:35:12.086Z,12.53
2022-11-19T15:37:54.393Z,12.40
2022-11-19T15:40:29.155Z,13.30
2022-11-19T15:43:06.906Z,14.00
2022-11-19T15:45:47.156Z,21.07
2022-11-19T15:48:20.263Z,16.67
2022-11-19T15:50:47.200Z,12.67
2022-11-19T15:53:24.522Z,18.10
2022-11-19T15:56:02.418Z,16.67
2022-11-19T15:58:49.145Z,22.20
2022-11-19T16:01:18.970Z,14.40
2022-11-19T16:03:45.811Z,12.63
2022-11-19T16:06:18.847Z,15.13
2022-11-19T16:08:47.261Z,14.50
2022-11-19T16:11:35.785Z,14.90
2022-11-19T16:14:21.177Z,17.03
2022-11-19T16:17:10.219Z,15.60
2022-11-19T16:19:36.736Z,16.63
2022-11-19T16:22:04.863Z,15.70
2022-11-19T16:24:50.531Z,12.20
2022-11-19T16:27:22.812Z,14.27
2022-11-19T16:29:49.288Z,16.00
2022-11-19T16:32:18.710Z,13.30
2022-11-19T16:34:46.213Z,16.53
2022-11-19T16:37:14.593Z,20.77
2022-11-19T16:39:42.355Z,13.80
2022-11-19T16:42:18.171Z,13.90
2022-11-19T16:44:56.647Z,11.17
2022-11-19T16:47:32.554Z,11.73
2022-11-19T16:50:27.278Z,13.20
2022-11-19T16:52:54.617Z,15.50
2022-11-19T16:55:24.277Z,15.63
2022-11-19T16:57:56.770Z,13.63
2022-11-19T17:00:25.336Z,15.13
2022-11-19T17:02:52.311Z,13.37
2022-11-19T17:05:22.128Z,14.50
2022-11-19T17:07:50.185Z,13.37
2022-11-19T17:10:21.194Z,17.10
2022-11-19T17:12:55.361Z,13.17
2022-11-19T17:15:37.385Z,11.73
2022-11-19T17:18:09.842Z,11.70
2022-11-19T17:20:36.336Z,11.93
2022-11-19T17:23:10.612Z,14.27
2022-11-19T17:26:06.635Z,12.77
2022-11-19T17:28:46.450Z,54.27
2022-11-19T17:31:31.552Z,68.47
2022-11-19T17:34:07.943Z,13.57
2022-11-19T17:36:34.380Z,11.67
2022-11-19T17:39:00.880Z,14.63
2022-11-19T17:41:47.189Z,11.33
2022-11-19T17:44:34.855Z,15.17
2022-11-19T17:47:24.013Z,15.93
2022-11-19T17:49:52.649Z,15.93
2022-11-19T17:52:22.618Z,13.00
2022-11-19T17:54:50.208Z,14.60
2022-11-19T17:57:16.743Z,13.47
2022-11-19T17:59:43.333Z,13.03
2022-11-19T18:02:18.117Z,12.90
2022-11-19T18:04:46.864Z,12.43
2022-11-19T18:07:13.914Z,14.73
2022-11-19T18:09:43.918Z,16.23
2022-11-19T18:12:15.568Z,15.73
2022-11-19T18:14:42.460Z,14.30
2022-11-19T18:17:15.740Z,15.00
2022-11-19T18:19:42.500Z,15.20
2022-11-19T18:22:18.203Z,22.03
2022-11-19T18:24:49.698Z,21.63
2022-11-19T18:27:16.725Z,16.93
2022-11-19T18:29:43.259Z,16.87
2022-11-19T18:32:15.224Z,15.37
2022-11-19T18:34:41.925Z,19.83
2022-11-19T18:37:08.792Z,15.17
2022-11-19T18:39:35.441Z,15.83
2022-11-19T18:42:02.027Z,13.60
2022-11-19T18:44:34.619Z,14.53
2022-11-19T18:47:06.448Z,39.07
2022-11-19T18:49:35.940Z,52.50
2022-11-19T18:52:07.645Z,24.30
2022-11-19T18:54:34.609Z,28.73
2022-11-19T18:57:01.601Z,22.53
2022-11-19T18:59:29.737Z,14.90
2022-11-19T19:01:56.276Z,19.60
2022-11-19T19:04:23.990Z,21.10
2022-11-19T19:06:50.515Z,18.07
2022-11-19T19:09:20.640Z,21.10
2022-11-19T19:12:12.535Z,21.83
2022-11-19T19:14:39.771Z,16.77
2022-11-19T19:17:06.277Z,19.30
2022-11-19T19:19:32.755Z,17.50
2022-11-19T19:21:59.523Z,26.93
2022-11-19T19:24:26.569Z,23.47
2022-11-19T19:26:53.648Z,23.27
2022-11-19T19:29:20.452Z,24.40
2022-11-19T19:31:47.249Z,23.50
2022-11-19T19:34:13.764Z,23.47
2022-11-19T19:36:40.213Z,23.70
2022-11-19T19:39:06.810Z,23.67
2022-11-19T19:41:33.613Z,29.60
2022-11-19T19:44:02.737Z,25.43
2022-11-19T19:46:29.802Z,21.57
2022-11-19T19:48:56.644Z,20.40
2022-11-19T19:51:25.533Z,20.37
2022-11-19T19:53:52.948Z,21.77
2022-11-19T19:56:26.926Z,23.30
2022-11-19T19:58:57.776Z,23.03
2022-11-19T20:01:29.759Z,19.53
2022-11-19T20:04:07.937Z,20.17
2022-11-19T20:06:35.548Z,21.93
2022-11-19T20:09:08.116Z,19.10
2022-11-19T20:11:35.754Z,16.83
2022-11-19T20:14:02.434Z,18.97
2022-11-19T20:16:30.574Z,17.47
2022-11-19T20:18:58.796Z,22.40
2022-11-19T20:21:36.315Z,22.17
2022-11-19T20:24:08.677Z,21.50
2022-11-19T20:26:37.234Z,20.50
2022-11-19T20:29:05.410Z,23.50
2022-11-19T20:31:33.210Z,22.63
2022-11-19T20:34:01.763Z,24.90
2022-11-19T20:36:30.211Z,28.30
2022-11-19T20:38:57.549Z,23.23
2022-11-19T20:41:43.195Z,22.77
2022-11-19T20:44:20.183Z,31.73
2022-11-19T20:46:58.199Z,31.87
2022-11-19T20:49:29.673Z,36.43
2022-11-19T20:51:56.849Z,32.43
2022-11-19T20:54:24.263Z,32.30
2022-11-19T20:56:51.955Z,31.97
2022-11-19T20:59:18.892Z,29.67
2022-11-19T21:01:50.356Z,29.53
2022-11-19T21:04:17.393Z,33.33
2022-11-19T21:06:43.863Z,40.80
2022-11-19T21:09:10.493Z,37.43
2022-11-19T21:11:37.090Z,36.20
2022-11-19T21:14:03.983Z,26.47
2022-11-19T21:16:31.628Z,24.03
2022-11-19T21:18:58.203Z,22.07
2022-11-19T21:21:25.732Z,21.73
2022-11-19T21:23:53.404Z,23.23
2022-11-19T21:26:22.446Z,21.40
2022-11-19T21:28:53.777Z,20.40
2022-11-19T21:31:22.968Z,22.53
2022-11-19T21:33:49.502Z,20.87
2022-11-19T21:36:16.025Z,21.00
2022-11-19T21:38:42.514Z,28.43
2022-11-19T21:41:09.104Z,24.17
2022-11-19T21:43:35.768Z,21.23
2022-11-19T21:46:06.841Z,23.80
2022-11-19T21:48:33.286Z,25.17
2022-11-19T21:50:59.814Z,23.50
2022-11-19T21:53:26.367Z,26.47
2022-11-19T21:55:52.828Z,21.17
2022-11-19T21:58:19.960Z,21.70
2022-11-19T22:00:47.145Z,20.80
2022-11-19T22:03:14.227Z,18.60
2022-11-19T22:05:41.342Z,19.47
2022-11-19T22:08:08.199Z,22.33
2022-11-19T22:10:34.740Z,18.37
2022-11-19T22:13:01.257Z,17.23
2022-11-19T22:15:27.833Z,18.63
2022-11-19T22:17:54.335Z,18.13
2022-11-19T22:20:20.819Z,18.90
2022-11-19T22:22:47.458Z,22.73
2022-11-19T22:25:14.236Z,18.27
2022-11-19T22:27:41.796Z,19.17
2022-11-19T22:30:10.307Z,21.70
2022-11-19T22:32:37.082Z,27.17
2022-11-19T22:35:04.260Z,44.77
2022-11-19T22:37:30.702Z,33.23
2022-11-19T22:39:57.346Z,35.50
2022-11-19T22:42:23.834Z,27.57
2022-11-19T22:44:51.447Z,31.23
2022-11-19T22:47:17.932Z,39.37
2022-11-19T22:49:44.810Z,35.03
2022-11-19T22:52:11.270Z,37.80
2022-11-19T22:54:41.547Z,32.67
2022-11-19T22:57:08.683Z,31.80
2022-11-19T22:59:35.425Z,32.63
2022-11-19T23:02:01.925Z,30.40
2022-11-19T23:04:29.097Z,31.70
2022-11-19T23:06:55.654Z,29.43
2022-11-19T23:09:22.675Z,33.50
2022-11-19T23:12:08.044Z,33.63
2022-11-19T23:14:34.514Z,32.10
2022-11-19T23:17:01.157Z,36.57
2022-11-19T23:19:27.613Z,34.47
2022-11-19T23:21:54.160Z,31.43
2022-11-19T23:24:20.604Z,34.23
2022-11-19T23:26:47.054Z,30.67
2022-11-19T23:29:13.825Z,26.30
2022-11-19T23:31:40.526Z,34.37
2022-11-19T23:34:07.130Z,32.30
2022-11-19T23:36:36.322Z,33.17
2022-11-19T23:39:03.513Z,32.60
2022-11-19T23:41:32.498Z,30.70
2022-11-19T23:43:59.097Z,29.70
2022-11-19T23:46:27.920Z,29.93
2022-11-19T23:48:56.076Z,32.13
2022-11-19T23:51:30.899Z,33.77
2022-11-19T23:53:58.148Z,27.63
2022-11-19T23:56:25.519Z,31.07
2022-11-19T23:58:52.096Z,30.27
